createdAt,value
2023-03-16T00:00:37.021Z,-0.40
2023-03-16T00:02:38.690Z,-0.40
2023-03-16T00:04:40.596Z,-0.40
2023-03-16T00:07:22.765Z,-0.40
2023-03-16T00:09:31.138Z,-0.40
2023-03-16T00:11:33.073Z,-0.40
2023-03-16T00:13:34.735Z,-0.50
2023-03-16T00:15:36.448Z,-0.40
2023-03-16T00:17:38.210Z,-0.50
2023-03-16T00:20:05.779Z,-0.60
2023-03-16T00:22:07.531Z,-0.60
2023-03-16T00:24:09.363Z,-0.60
2023-03-16T00:26:13.112Z,-0.60
2023-03-16T00:28:14.811Z,-0.60
2023-03-16T00:30:16.902Z,-0.60
2023-03-16T00:32:20.707Z,-0.60
2023-03-16T00:34:22.899Z,-0.60
2023-03-16T00:36:24.630Z,-0.60
2023-03-16T00:38:26.359Z,-0.60
2023-03-16T00:40:28.310Z,-0.60
2023-03-16T00:42:31.348Z,-0.60
2023-03-16T00:44:33.103Z,-0.60
2023-03-16T00:46:34.783Z,-0.60
2023-03-16T00:48:38.297Z,-0.60
2023-03-16T00:50:40.277Z,-0.50
2023-03-16T00:52:45.142Z,-0.50
2023-03-16T00:54:48.212Z,-0.50
2023-03-16T00:56:50.168Z,-0.40
2023-03-16T00:58:57.541Z,-0.40
2023-03-16T01:01:00.208Z,-0.40
2023-03-16T01:03:01.974Z,-0.40
2023-03-16T01:05:05.763Z,-0.40
2023-03-16T01:07:09.347Z,-0.40
2023-03-16T01:09:11.453Z,-0.30
2023-03-16T01:11:19.007Z,-0.30
2023-03-16T01:13:21.583Z,-0.30
2023-03-16T01:15:23.262Z,-0.30
2023-03-16T01:17:25.054Z,-0.30
2023-03-16T01:19:26.949Z,-0.30
2023-03-16T01:21:29.398Z,-0.30
2023-03-16T01:23:31.574Z,-0.30
2023-03-16T01:25:33.423Z,-0.30
2023-03-16T01:27:35.118Z,-0.30
2023-03-16T01:29:37.704Z,-0.40
2023-03-16T01:31:39.847Z,-0.40
2023-03-16T01:33:42.106Z,-0.40
2023-03-16T01:36:02.509Z,-0.50
2023-03-16T01:38:04.804Z,-0.50
2023-03-16T01:40:07.613Z,-0.50
2023-03-16T01:42:09.653Z,-0.50
2023-03-16T01:44:17.582Z,-0.50
2023-03-16T01:46:30.373Z,-0.50
2023-03-16T01:48:42.708Z,-0.50
2023-03-16T01:50:44.669Z,-0.60
2023-03-16T01:52:46.436Z,-0.60
2023-03-16T01:55:02.196Z,-0.60
2023-03-16T01:57:11.817Z,-0.70
2023-03-16T01:59:16.938Z,-0.70
2023-03-16T02:01:19.465Z,-0.70
2023-03-16T02:03:22.640Z,-0.70
2023-03-16T02:05:38.959Z,-0.70
2023-03-16T02:07:47.668Z,-0.70
2023-03-16T02:09:53.312Z,-0.60
2023-03-16T02:11:55.762Z,-0.60
2023-03-16T02:14:02.515Z,-0.60
2023-03-16T02:16:08.931Z,-0.50
2023-03-16T02:18:11.333Z,-0.60
2023-03-16T02:20:42.596Z,-0.60
2023-03-16T02:22:47.550Z,-0.60
2023-03-16T02:24:49.465Z,-0.60
2023-03-16T02:26:57.671Z,-0.70
2023-03-16T02:29:14.240Z,-0.60
2023-03-16T02:31:17.432Z,-0.60
2023-03-16T02:33:21.431Z,-0.60
2023-03-16T02:35:23.488Z,-0.70
2023-03-16T02:37:26.809Z,-0.70
2023-03-16T02:39:28.586Z,-0.70
2023-03-16T02:41:32.699Z,-0.70
2023-03-16T02:43:37.196Z,-0.70
2023-03-16T02:45:44.787Z,-0.60
2023-03-16T02:47:51.588Z,-0.60
2023-03-16T02:49:53.452Z,-0.60
2023-03-16T02:51:57.818Z,-0.70
2023-03-16T02:53:59.747Z,-0.70
2023-03-16T02:56:03.126Z,-0.70
2023-03-16T02:58:05.266Z,-0.70
2023-03-16T03:00:16.989Z,-0.70
2023-03-16T03:02:18.671Z,-0.70
2023-03-16T03:04:23.413Z,-0.70
2023-03-16T03:06:25.258Z,-0.70
2023-03-16T03:08:27.119Z,-0.70
2023-03-16T03:10:29.329Z,-0.80
2023-03-16T03:12:31.542Z,-0.80
2023-03-16T03:14:38.193Z,-0.80
2023-03-16T03:16:39.957Z,-0.90
2023-03-16T03:18:41.652Z,-0.90
2023-03-16T03:20:43.351Z,-0.90
2023-03-16T03:22:47.729Z,-0.90
2023-03-16T03:24:49.484Z,-0.90
2023-03-16T03:26:52.241Z,-0.90
2023-03-16T03:28:53.949Z,-0.90
2023-03-16T03:30:55.937Z,-0.90
2023-03-16T03:32:58.217Z,-1.00
2023-03-16T03:34:59.884Z,-1.00
2023-03-16T03:37:01.601Z,-1.00
2023-03-16T03:39:07.051Z,-1.00
2023-03-16T03:41:08.896Z,-1.00
2023-03-16T03:43:10.644Z,-1.00
2023-03-16T03:45:13.220Z,-1.10
2023-03-16T03:47:15.153Z,-1.10
2023-03-16T03:49:16.911Z,-1.00
2023-03-16T03:51:18.607Z,-0.90
2023-03-16T03:53:20.350Z,-0.90
2023-03-16T03:55:21.986Z,-1.00
2023-03-16T03:57:23.703Z,-0.90
2023-03-16T03:59:25.490Z,-1.00
2023-03-16T04:01:27.246Z,-1.00
2023-03-16T04:03:29.032Z,-1.10
2023-03-16T04:05:30.900Z,-1.10
2023-03-16T04:07:32.640Z,-1.10
2023-03-16T04:09:34.610Z,-1.10
2023-03-16T04:11:36.313Z,-1.10
2023-03-16T04:13:38.605Z,-1.10
2023-03-16T04:15:40.597Z,-1.10
2023-03-16T04:17:42.369Z,-1.10
2023-03-16T04:19:44.451Z,-1.10
2023-03-16T04:21:46.185Z,-1.10
2023-03-16T04:23:49.380Z,-1.10
2023-03-16T04:25:51.834Z,-1.20
2023-03-16T04:27:53.792Z,-1.20
2023-03-16T04:29:58.716Z,-1.10
2023-03-16T04:32:00.563Z,-1.10
2023-03-16T04:34:02.397Z,-1.10
2023-03-16T04:36:05.710Z,-1.10
2023-03-16T04:38:07.937Z,-1.10
2023-03-16T04:40:16.312Z,-1.10
2023-03-16T04:42:17.971Z,-1.10
2023-03-16T04:44:19.965Z,-1.10
2023-03-16T04:46:21.809Z,-1.00
2023-03-16T04:48:23.926Z,-1.10
2023-03-16T04:50:26.201Z,-1.10
2023-03-16T04:52:28.776Z,-1.10
2023-03-16T04:54:31.211Z,-1.10
2023-03-16T04:56:33.876Z,-1.10
2023-03-16T04:58:35.600Z,-1.20
2023-03-16T05:00:37.619Z,-1.20
2023-03-16T05:02:39.422Z,-1.20
2023-03-16T05:04:41.193Z,-1.20
2023-03-16T05:06:42.895Z,-1.20
2023-03-16T05:08:44.891Z,-1.10
2023-03-16T05:10:48.159Z,-1.10
2023-03-16T05:12:49.772Z,-1.10
2023-03-16T05:14:51.652Z,-1.10
2023-03-16T05:16:53.373Z,-1.10
2023-03-16T05:18:58.634Z,-1.10
2023-03-16T05:21:00.575Z,-1.10
2023-03-16T05:23:02.379Z,-1.10
2023-03-16T05:25:05.683Z,-1.00
2023-03-16T05:27:07.351Z,-1.00
2023-03-16T05:29:09.365Z,-1.00
2023-03-16T05:31:11.730Z,-1.00
2023-03-16T05:33:13.545Z,-1.00
2023-03-16T05:35:15.765Z,-1.00
2023-03-16T05:37:17.665Z,-1.00
2023-03-16T05:39:19.736Z,-1.00
2023-03-16T05:41:22.940Z,-1.00
2023-03-16T05:43:24.698Z,-1.00
2023-03-16T05:45:26.913Z,-1.00
2023-03-16T05:47:28.694Z,-1.00
2023-03-16T05:49:31.329Z,-1.00
2023-03-16T05:51:33.077Z,-1.00
2023-03-16T05:53:35.617Z,-1.00
2023-03-16T05:55:37.350Z,-0.90
2023-03-16T05:57:39.087Z,-0.90
2023-03-16T05:59:40.821Z,-0.80
2023-03-16T06:01:43.218Z,-0.70
2023-03-16T06:03:44.992Z,-0.70
2023-03-16T06:05:47.708Z,-0.60
2023-03-16T06:07:50.207Z,-0.60
2023-03-16T06:09:52.342Z,-0.50
2023-03-16T06:11:54.210Z,-0.50
2023-03-16T06:13:57.849Z,-0.40
2023-03-16T06:15:59.709Z,-0.40
2023-03-16T06:18:01.938Z,-0.30
2023-03-16T06:20:10.479Z,-0.30
2023-03-16T06:22:12.660Z,-0.10
2023-03-16T06:24:14.354Z,-0.10
2023-03-16T06:26:16.162Z,0.00
2023-03-16T06:28:17.867Z,0.00
2023-03-16T06:30:19.523Z,0.10
2023-03-16T06:32:22.091Z,0.10
2023-03-16T06:34:23.766Z,0.10
2023-03-16T06:36:25.900Z,0.20
2023-03-16T06:38:27.619Z,0.30
2023-03-16T06:40:29.856Z,0.60
2023-03-16T06:42:31.999Z,0.90
2023-03-16T06:44:34.168Z,1.40
2023-03-16T06:46:36.048Z,1.90
2023-03-16T06:48:38.431Z,2.50
2023-03-16T06:50:40.396Z,3.00
2023-03-16T06:52:42.132Z,3.40
2023-03-16T06:54:43.770Z,3.60
2023-03-16T06:56:46.463Z,3.90
2023-03-16T06:58:48.262Z,3.90
2023-03-16T07:00:50.151Z,4.10
2023-03-16T07:02:52.069Z,4.20
2023-03-16T07:04:54.121Z,4.30
2023-03-16T07:06:56.278Z,4.60
2023-03-16T07:08:58.276Z,4.80
2023-03-16T07:11:00.179Z,5.30
2023-03-16T07:13:02.116Z,5.50
2023-03-16T07:15:04.683Z,5.70
2023-03-16T07:17:06.524Z,6.00
2023-03-16T07:19:08.421Z,6.20
2023-03-16T07:21:10.874Z,6.30
2023-03-16T07:23:12.789Z,6.70
2023-03-16T07:25:14.618Z,6.90
2023-03-16T07:27:16.292Z,7.10
2023-03-16T07:29:18.525Z,7.00
2023-03-16T07:31:20.470Z,7.00
2023-03-16T07:33:22.509Z,6.80
2023-03-16T07:35:24.429Z,6.50
2023-03-16T07:37:26.450Z,6.30
2023-03-16T07:39:28.804Z,6.30
2023-03-16T07:41:32.672Z,6.40
2023-03-16T07:43:34.862Z,6.60
2023-03-16T07:45:36.652Z,6.90
2023-03-16T07:47:38.697Z,7.30
2023-03-16T07:49:41.607Z,7.70
2023-03-16T07:51:43.343Z,8.10
2023-03-16T07:53:45.041Z,8.60
2023-03-16T07:55:47.324Z,8.80
2023-03-16T07:57:49.032Z,8.70
2023-03-16T07:59:51.846Z,8.80
2023-03-16T08:01:53.558Z,8.90
2023-03-16T08:03:55.533Z,9.20
2023-03-16T08:05:57.462Z,9.10
2023-03-16T08:07:59.504Z,9.20
2023-03-16T08:10:01.396Z,9.20
2023-03-16T08:12:04.415Z,9.00
2023-03-16T08:14:06.122Z,9.40
2023-03-16T08:16:10.617Z,9.70
2023-03-16T08:18:12.548Z,10.20
2023-03-16T08:20:15.777Z,10.60
2023-03-16T08:22:17.490Z,10.80
2023-03-16T08:24:19.378Z,10.80
2023-03-16T08:26:22.318Z,10.80
2023-03-16T08:28:25.976Z,10.90
2023-03-16T08:30:28.225Z,11.00
2023-03-16T08:32:30.584Z,11.30
2023-03-16T08:34:32.441Z,12.00
2023-03-16T08:36:34.172Z,12.80
2023-03-16T08:38:35.898Z,13.30
2023-03-16T08:40:38.056Z,13.10
2023-03-16T08:42:41.261Z,13.20
2023-03-16T08:44:44.010Z,13.00
2023-03-16T08:46:45.813Z,12.60
2023-03-16T08:48:48.526Z,12.60
2023-03-16T08:50:50.330Z,11.90
2023-03-16T08:52:52.230Z,11.80
2023-03-16T08:55:02.867Z,12.10
2023-03-16T08:57:05.950Z,11.90
2023-03-16T08:59:10.487Z,11.40
2023-03-16T09:01:19.645Z,11.30
2023-03-16T09:03:21.453Z,11.10
2023-03-16T09:05:23.367Z,11.30
2023-03-16T09:07:25.146Z,11.60
2023-03-16T09:09:27.487Z,11.70
2023-03-16T09:11:30.721Z,11.80
2023-03-16T09:13:33.015Z,11.90
2023-03-16T09:15:35.533Z,11.60
2023-03-16T09:17:37.567Z,11.20
2023-03-16T09:19:51.469Z,11.10
2023-03-16T09:21:53.854Z,11.40
2023-03-16T09:23:56.304Z,11.70
2023-03-16T09:25:59.977Z,12.10
2023-03-16T09:28:02.079Z,12.30
2023-03-16T09:30:08.854Z,12.20
2023-03-16T09:32:11.352Z,12.70
2023-03-16T09:34:13.105Z,13.60
2023-03-16T09:36:15.411Z,12.60
2023-03-16T09:38:17.899Z,13.00
2023-03-16T09:40:30.827Z,13.30
2023-03-16T09:42:38.494Z,13.10
2023-03-16T09:44:59.472Z,13.50
2023-03-16T09:47:03.796Z,13.80
2023-03-16T09:49:05.670Z,12.90
2023-03-16T09:51:23.386Z,12.50
2023-03-16T09:53:37.663Z,11.40
2023-03-16T09:55:40.880Z,10.90
2023-03-16T09:57:45.080Z,10.90
2023-03-16T09:59:47.976Z,11.70
2023-03-16T10:02:04.854Z,12.70
2023-03-16T10:04:28.706Z,13.30
2023-03-16T10:06:31.553Z,13.10
2023-03-16T10:08:40.727Z,12.70
2023-03-16T10:11:03.327Z,12.30
2023-03-16T10:13:17.998Z,12.10
2023-03-16T10:15:27.608Z,12.10
2023-03-16T10:17:47.275Z,12.50
2023-03-16T10:19:58.166Z,12.60
2023-03-16T10:22:02.975Z,12.80
2023-03-16T10:24:07.100Z,12.70
2023-03-16T10:26:16.070Z,12.80
2023-03-16T10:28:21.035Z,12.90
2023-03-16T10:30:26.045Z,13.30
2023-03-16T10:32:32.553Z,13.70
2023-03-16T10:34:35.639Z,13.70
2023-03-16T10:36:42.008Z,13.60
2023-03-16T10:38:49.261Z,13.00
2023-03-16T10:40:52.945Z,12.30
2023-03-16T10:42:55.153Z,11.90
2023-03-16T10:45:01.006Z,11.80
2023-03-16T10:47:06.128Z,11.90
2023-03-16T10:49:20.203Z,12.10
2023-03-16T10:51:26.627Z,12.70
2023-03-16T10:53:35.002Z,12.90
2023-03-16T10:55:43.646Z,12.70
2023-03-16T10:57:55.689Z,12.70
2023-03-16T11:00:10.307Z,12.80
2023-03-16T11:02:17.346Z,13.20
2023-03-16T11:04:20.390Z,13.20
2023-03-16T11:06:24.828Z,12.70
2023-03-16T11:08:28.112Z,12.20
2023-03-16T11:10:40.477Z,12.30
2023-03-16T11:12:48.757Z,12.50
2023-03-16T11:14:50.618Z,12.50
2023-03-16T11:17:10.545Z,12.80
2023-03-16T11:19:24.569Z,13.40
2023-03-16T11:21:50.857Z,13.30
2023-03-16T11:23:56.227Z,13.40
2023-03-16T11:26:02.876Z,13.60
2023-03-16T11:28:11.915Z,14.20
2023-03-16T11:30:55.237Z,14.40
2023-03-16T11:33:00.192Z,14.00
2023-03-16T11:35:08.000Z,13.30
2023-03-16T11:37:25.765Z,13.20
2023-03-16T11:39:40.628Z,13.10
2023-03-16T11:41:48.404Z,13.00
2023-03-16T11:43:55.283Z,13.20
2023-03-16T11:46:18.862Z,13.20
2023-03-16T11:48:29.405Z,12.90
2023-03-16T11:50:56.520Z,12.30
2023-03-16T11:53:25.768Z,12.20
2023-03-16T11:55:42.105Z,11.60
2023-03-16T11:57:46.563Z,11.90
2023-03-16T12:00:16.445Z,12.70
2023-03-16T12:02:27.145Z,13.40
2023-03-16T12:04:38.650Z,13.20
2023-03-16T12:07:01.085Z,13.20
2023-03-16T12:09:39.409Z,13.30
2023-03-16T12:11:56.341Z,13.50
2023-03-16T12:14:14.564Z,13.30
2023-03-16T12:16:49.044Z,12.80
2023-03-16T12:19:05.496Z,13.00
2023-03-16T12:21:42.245Z,13.20
2023-03-16T12:23:59.108Z,13.50
2023-03-16T12:26:03.669Z,13.30
2023-03-16T12:28:18.644Z,13.20
2023-03-16T12:30:50.575Z,13.10
2023-03-16T12:33:02.201Z,13.50
2023-03-16T12:35:28.087Z,14.00
2023-03-16T12:37:36.256Z,14.10
2023-03-16T12:39:47.833Z,14.10
2023-03-16T12:42:45.640Z,13.80
2023-03-16T12:44:53.926Z,13.90
2023-03-16T12:47:12.328Z,13.50
2023-03-16T12:49:17.635Z,13.60
2023-03-16T12:51:19.370Z,13.70
2023-03-16T12:53:44.013Z,13.60
2023-03-16T12:55:45.778Z,14.00
2023-03-16T12:57:51.543Z,14.80
2023-03-16T12:59:59.081Z,15.20
2023-03-16T13:02:03.924Z,14.30
2023-03-16T13:04:23.695Z,14.50
2023-03-16T13:06:31.014Z,14.10
2023-03-16T13:08:46.695Z,13.60
2023-03-16T13:11:07.550Z,13.60
2023-03-16T13:13:15.385Z,13.60
2023-03-16T13:15:20.138Z,13.60
2023-03-16T13:17:30.723Z,13.90
2023-03-16T13:19:37.810Z,14.10
2023-03-16T13:21:41.621Z,14.40
2023-03-16T13:23:59.558Z,14.10
2023-03-16T13:26:12.818Z,13.90
2023-03-16T13:28:17.084Z,14.00
2023-03-16T13:30:31.954Z,14.30
2023-03-16T13:32:35.148Z,14.80
2023-03-16T13:34:45.541Z,15.20
2023-03-16T13:36:50.299Z,15.30
2023-03-16T13:39:04.306Z,15.30
2023-03-16T13:41:11.813Z,15.70
2023-03-16T13:43:18.720Z,15.80
2023-03-16T13:45:31.756Z,15.40
2023-03-16T13:47:33.530Z,15.20
2023-03-16T13:49:44.263Z,15.20
2023-03-16T13:51:47.267Z,15.20
2023-03-16T13:53:50.744Z,15.10
2023-03-16T13:55:54.706Z,15.20
2023-03-16T13:57:56.637Z,15.30
2023-03-16T14:00:20.317Z,15.60
2023-03-16T14:02:23.362Z,15.60
2023-03-16T14:04:28.750Z,15.30
2023-03-16T14:06:31.754Z,14.90
2023-03-16T14:08:34.713Z,14.40
2023-03-16T14:10:37.701Z,13.60
2023-03-16T14:12:40.836Z,13.00
2023-03-16T14:14:46.022Z,12.40
2023-03-16T14:16:47.870Z,12.00
2023-03-16T14:18:56.150Z,11.70
2023-03-16T14:20:58.094Z,11.70
2023-03-16T14:23:00.056Z,12.00
2023-03-16T14:25:04.701Z,12.20
2023-03-16T14:27:43.764Z,12.50
2023-03-16T14:29:50.549Z,13.10
2023-03-16T14:31:52.829Z,13.60
2023-03-16T14:34:01.104Z,13.70
2023-03-16T14:36:14.774Z,14.00
2023-03-16T14:38:36.934Z,13.30
2023-03-16T14:40:40.536Z,13.20
2023-03-16T14:42:43.329Z,13.00
2023-03-16T14:44:45.461Z,12.80
2023-03-16T14:46:47.456Z,12.60
2023-03-16T14:48:50.514Z,12.10
2023-03-16T14:50:58.268Z,11.80
2023-03-16T14:53:01.769Z,11.70
2023-03-16T14:55:15.051Z,11.70
2023-03-16T14:57:17.883Z,11.60
2023-03-16T14:59:20.821Z,11.40
2023-03-16T15:01:22.648Z,11.20
2023-03-16T15:03:35.354Z,11.20
2023-03-16T15:05:40.253Z,11.10
2023-03-16T15:07:45.400Z,11.10
2023-03-16T15:09:47.241Z,11.20
2023-03-16T15:11:49.254Z,11.30
2023-03-16T15:13:52.166Z,11.20
2023-03-16T15:15:54.168Z,11.10
2023-03-16T15:17:56.269Z,11.10
2023-03-16T15:19:58.547Z,10.90
2023-03-16T15:22:01.583Z,10.90
2023-03-16T15:24:03.420Z,10.90
2023-03-16T15:26:07.483Z,10.90
2023-03-16T15:28:21.746Z,10.90
2023-03-16T15:30:26.035Z,11.00
2023-03-16T15:32:27.738Z,11.10
2023-03-16T15:34:29.499Z,11.00
2023-03-16T15:36:31.812Z,11.00
2023-03-16T15:38:39.729Z,10.90
2023-03-16T15:40:45.741Z,10.80
2023-03-16T15:42:47.441Z,10.70
2023-03-16T15:44:49.170Z,10.80
2023-03-16T15:46:51.370Z,10.80
2023-03-16T15:48:53.441Z,10.70
2023-03-16T15:51:04.153Z,10.70
2023-03-16T15:53:15.356Z,10.60
2023-03-16T15:55:39.256Z,10.60
2023-03-16T15:57:41.588Z,10.60
2023-03-16T15:59:43.570Z,10.50
2023-03-16T16:01:47.912Z,10.50
2023-03-16T16:03:51.102Z,10.50
2023-03-16T16:05:53.077Z,10.50
2023-03-16T16:07:55.717Z,10.50
2023-03-16T16:09:57.430Z,10.40
2023-03-16T16:11:59.088Z,10.40
2023-03-16T16:14:00.947Z,10.40
2023-03-16T16:16:02.883Z,10.30
2023-03-16T16:18:39.802Z,10.20
2023-03-16T16:20:41.826Z,10.20
2023-03-16T16:22:44.050Z,10.10
2023-03-16T16:24:46.568Z,9.90
2023-03-16T16:26:55.351Z,9.80
2023-03-16T16:29:00.828Z,9.80
2023-03-16T16:31:02.760Z,9.70
2023-03-16T16:33:19.701Z,9.60
2023-03-16T16:35:24.338Z,9.50
2023-03-16T16:37:26.052Z,9.40
2023-03-16T16:39:27.712Z,9.40
2023-03-16T16:41:32.025Z,9.30
2023-03-16T16:43:44.256Z,9.30
2023-03-16T16:45:46.978Z,9.20
2023-03-16T16:47:55.431Z,9.10
2023-03-16T16:49:57.725Z,9.00
2023-03-16T16:51:59.847Z,8.90
2023-03-16T16:54:02.349Z,8.90
2023-03-16T16:56:04.713Z,8.90
2023-03-16T16:58:18.477Z,8.80
2023-03-16T17:00:26.088Z,8.70
2023-03-16T17:02:40.983Z,8.60
2023-03-16T17:04:44.031Z,8.60
2023-03-16T17:06:46.680Z,8.50
2023-03-16T17:08:50.044Z,8.40
2023-03-16T17:10:53.361Z,8.40
2023-03-16T17:12:57.224Z,8.30
2023-03-16T17:14:58.954Z,8.20
2023-03-16T17:17:13.758Z,8.20
2023-03-16T17:19:21.676Z,8.20
2023-03-16T17:21:25.688Z,8.20
2023-03-16T17:23:32.532Z,8.20
2023-03-16T17:25:34.322Z,8.10
2023-03-16T17:27:36.417Z,8.10
2023-03-16T17:29:38.122Z,8.10
2023-03-16T17:31:42.251Z,8.00
2023-03-16T17:33:44.501Z,8.00
2023-03-16T17:35:47.671Z,7.90
2023-03-16T17:37:49.459Z,7.90
2023-03-16T17:39:52.004Z,7.80
2023-03-16T17:42:01.905Z,7.80
2023-03-16T17:44:05.541Z,7.70
2023-03-16T17:46:08.185Z,7.70
2023-03-16T17:48:28.380Z,7.70
2023-03-16T17:50:30.438Z,7.60
2023-03-16T17:52:32.719Z,7.60
2023-03-16T17:54:34.476Z,7.60
2023-03-16T17:56:39.529Z,7.50
2023-03-16T17:58:43.099Z,7.50
2023-03-16T18:00:46.892Z,7.50
2023-03-16T18:03:00.535Z,7.50
2023-03-16T18:05:02.254Z,7.40
2023-03-16T18:07:05.112Z,7.40
2023-03-16T18:09:08.924Z,7.40
2023-03-16T18:11:47.497Z,7.40
2023-03-16T18:13:51.274Z,7.40
2023-03-16T18:15:55.082Z,7.30
2023-03-16T18:17:57.575Z,7.40
2023-03-16T18:19:59.811Z,7.30
2023-03-16T18:22:01.928Z,7.30
2023-03-16T18:24:10.320Z,7.20
2023-03-16T18:26:12.272Z,7.20
2023-03-16T18:28:14.905Z,7.10
2023-03-16T18:30:16.883Z,7.10
2023-03-16T18:32:25.193Z,7.00
2023-03-16T18:34:32.467Z,7.00
2023-03-16T18:36:36.681Z,7.00
2023-03-16T18:38:42.526Z,6.90
2023-03-16T18:40:44.221Z,6.80
2023-03-16T18:42:46.295Z,6.90
2023-03-16T18:44:48.792Z,6.80
2023-03-16T18:46:53.830Z,6.80
2023-03-16T18:48:58.360Z,6.80
2023-03-16T18:51:01.075Z,6.80
2023-03-16T18:53:04.279Z,6.70
2023-03-16T18:55:19.448Z,6.70
2023-03-16T18:57:22.984Z,6.70
2023-03-16T18:59:25.739Z,6.70
2023-03-16T19:01:30.028Z,6.70
2023-03-16T19:03:34.797Z,6.60
2023-03-16T19:05:37.956Z,6.60
2023-03-16T19:07:46.199Z,6.60
2023-03-16T19:09:48.341Z,6.50
2023-03-16T19:11:50.775Z,6.50
2023-03-16T19:13:54.692Z,6.40
2023-03-16T19:15:57.811Z,6.40
2023-03-16T19:17:59.865Z,6.50
2023-03-16T19:20:01.846Z,6.50
2023-03-16T19:22:13.770Z,6.50
2023-03-16T19:24:25.321Z,6.50
2023-03-16T19:26:27.428Z,6.40
2023-03-16T19:28:39.883Z,6.40
2023-03-16T19:30:42.198Z,6.40
2023-03-16T19:32:43.900Z,6.40
2023-03-16T19:34:46.735Z,6.40
2023-03-16T19:36:48.628Z,6.40
2023-03-16T19:38:51.133Z,6.40
2023-03-16T19:40:56.555Z,6.40
2023-03-16T19:42:58.279Z,6.30
2023-03-16T19:45:00.896Z,6.20
2023-03-16T19:47:04.598Z,6.30
2023-03-16T19:49:11.402Z,6.20
2023-03-16T19:51:15.100Z,6.30
2023-03-16T19:53:19.176Z,6.20
2023-03-16T19:55:24.928Z,6.20
2023-03-16T19:57:28.368Z,6.20
2023-03-16T19:59:33.674Z,6.10
2023-03-16T20:01:35.858Z,6.10
2023-03-16T20:03:38.615Z,6.10
2023-03-16T20:05:40.611Z,6.10
2023-03-16T20:07:42.245Z,6.00
2023-03-16T20:09:44.475Z,6.00
2023-03-16T20:11:47.436Z,6.00
2023-03-16T20:13:50.187Z,6.00
2023-03-16T20:15:52.006Z,6.10
2023-03-16T20:17:54.497Z,6.00
2023-03-16T20:19:57.140Z,6.00
2023-03-16T20:21:59.233Z,6.00
2023-03-16T20:24:01.376Z,6.00
2023-03-16T20:26:03.910Z,5.90
2023-03-16T20:28:13.420Z,5.90
2023-03-16T20:30:17.702Z,5.90
2023-03-16T20:32:25.996Z,5.80
2023-03-16T20:34:31.002Z,5.90
2023-03-16T20:36:32.787Z,5.90
2023-03-16T20:38:34.481Z,5.80
2023-03-16T20:40:36.260Z,5.90
2023-03-16T20:42:39.409Z,5.90
2023-03-16T20:44:41.090Z,5.80
2023-03-16T20:46:44.829Z,5.80
2023-03-16T20:48:46.986Z,5.80
2023-03-16T20:50:49.718Z,5.90
2023-03-16T20:52:52.416Z,5.90
2023-03-16T20:54:54.469Z,5.90
2023-03-16T20:56:56.204Z,5.90
2023-03-16T20:58:59.040Z,5.80
2023-03-16T21:01:02.121Z,5.80
2023-03-16T21:03:23.043Z,5.80
2023-03-16T21:05:25.652Z,5.90
2023-03-16T21:07:27.951Z,5.80
2023-03-16T21:09:31.951Z,5.80
2023-03-16T21:11:38.706Z,5.70
2023-03-16T21:13:40.505Z,5.80
2023-03-16T21:15:42.415Z,5.70
2023-03-16T21:17:44.229Z,5.70
2023-03-16T21:19:46.020Z,5.70
2023-03-16T21:21:47.728Z,5.70
2023-03-16T21:23:49.761Z,5.70
2023-03-16T21:25:58.122Z,5.70
2023-03-16T21:28:03.940Z,5.60
2023-03-16T21:30:18.354Z,5.50
2023-03-16T21:32:23.706Z,5.50
2023-03-16T21:34:33.604Z,5.60
2023-03-16T21:36:35.416Z,5.60
2023-03-16T21:38:37.075Z,5.50
2023-03-16T21:40:39.046Z,5.50
2023-03-16T21:42:40.682Z,5.50
2023-03-16T21:44:42.492Z,5.50
2023-03-16T21:46:47.221Z,5.50
2023-03-16T21:48:54.773Z,5.50
2023-03-16T21:50:57.326Z,5.50
2023-03-16T21:52:59.305Z,5.40
2023-03-16T21:55:01.169Z,5.40
2023-03-16T21:57:11.080Z,5.40
2023-03-16T21:59:13.077Z,5.30
2023-03-16T22:01:23.471Z,5.30
2023-03-16T22:03:49.731Z,5.30
2023-03-16T22:05:53.949Z,5.20
2023-03-16T22:07:58.236Z,5.20
2023-03-16T22:09:59.958Z,5.20
2023-03-16T22:12:01.734Z,5.20
2023-03-16T22:14:03.592Z,5.20
2023-03-16T22:16:18.641Z,5.20
2023-03-16T22:18:36.835Z,5.20
2023-03-16T22:20:38.639Z,5.20
2023-03-16T22:22:40.700Z,5.20
2023-03-16T22:24:42.950Z,5.20
2023-03-16T22:26:44.940Z,5.20
2023-03-16T22:28:47.133Z,5.10
2023-03-16T22:30:49.074Z,5.10
2023-03-16T22:32:53.624Z,5.10
2023-03-16T22:34:57.143Z,5.10
2023-03-16T22:37:01.188Z,5.10
2023-03-16T22:39:08.669Z,5.10
2023-03-16T22:41:15.685Z,5.10
2023-03-16T22:43:21.641Z,5.20
2023-03-16T22:45:26.548Z,5.20
2023-03-16T22:47:35.276Z,5.30
2023-03-16T22:49:36.888Z,5.30
2023-03-16T22:51:39.011Z,5.30
2023-03-16T22:53:44.571Z,5.30
2023-03-16T22:55:47.149Z,5.20
2023-03-16T22:57:57.149Z,5.30
2023-03-16T23:00:00.771Z,5.30
2023-03-16T23:02:02.659Z,5.30
2023-03-16T23:04:19.928Z,5.30
2023-03-16T23:06:27.806Z,5.30
2023-03-16T23:08:29.482Z,5.30
2023-03-16T23:10:31.469Z,5.30
2023-03-16T23:12:33.567Z,5.30
2023-03-16T23:14:37.862Z,5.20
2023-03-16T23:16:40.607Z,5.20
2023-03-16T23:18:42.612Z,5.10
2023-03-16T23:20:45.255Z,5.00
2023-03-16T23:22:47.230Z,5.00
2023-03-16T23:24:48.958Z,4.90
2023-03-16T23:26:51.882Z,4.90
2023-03-16T23:28:56.505Z,4.80
2023-03-16T23:30:58.214Z,4.80
2023-03-16T23:33:00.203Z,4.80
2023-03-16T23:35:02.483Z,4.80
2023-03-16T23:37:04.270Z,4.70
2023-03-16T23:39:07.322Z,4.80
2023-03-16T23:41:11.042Z,4.80
2023-03-16T23:43:12.689Z,4.80
2023-03-16T23:45:34.541Z,4.70
2023-03-16T23:47:37.382Z,4.70
2023-03-16T23:49:42.258Z,4.70
2023-03-16T23:51:46.272Z,4.60
2023-03-16T23:53:48.795Z,4.60
2023-03-16T23:55:50.721Z,4.60
2023-03-16T23:57:52.419Z,4.60
2023-03-16T23:59:54.104Z,4.70
